Time;durP1;ratioP1;P1;durP2;ratioP2;P2;SDS_P1;SDS_P2;PMS_P1;PMS_P2;Temp;Humidity;BMP_temperature;BMP_pressure;BME280_temperature;BME280_humidity;BME280_pressure;Samples;Min_cycle;Max_cycle;Signal;HPM_P1;HPM_P2
2022/07/28 00:01:05;;;;;;;;;;;27.00;73.70;;;;;;5041571;28;19929;-59
2022/07/28 00:03:32;;;;;;;;;;;27.00;73.80;;;;;;5037732;28;19928;-60
2022/07/28 00:05:59;;;;;;;;;;;27.00;73.70;;;;;;5047597;28;19929;-59
2022/07/28 00:08:26;;;;;;;;;;;27.00;73.80;;;;;;5045080;28;20232;-58
2022/07/28 00:10:54;;;;;;;;;;;27.00;73.90;;;;;;5054440;28;20300;-59
2022/07/28 00:13:21;;;;;;;;;;;27.00;73.20;;;;;;5054182;28;19924;-59
2022/07/28 00:15:48;;;;;;;;;;;27.00;73.20;;;;;;5037810;28;19933;-58
2022/07/28 00:18:15;;;;;;;;;;;27.00;73.10;;;;;;5035985;28;19944;-58
2022/07/28 00:20:42;;;;;;;;;;;27.00;72.80;;;;;;5057042;28;20391;-59
2022/07/28 00:23:09;;;;;;;;;;;26.90;72.70;;;;;;5035902;28;19952;-60
2022/07/28 00:25:36;;;;;;;;;;;26.90;72.70;;;;;;5051724;28;19935;-59
2022/07/28 00:28:04;;;;;;;;;;;26.90;72.50;;;;;;5049178;28;20374;-60
2022/07/28 00:30:31;;;;;;;;;;;27.00;72.40;;;;;;5042895;28;19929;-57
2022/07/28 00:32:58;;;;;;;;;;;27.00;72.30;;;;;;5047805;28;19932;-60
2022/07/28 00:35:25;;;;;;;;;;;26.90;72.60;;;;;;5049277;28;19929;-60
2022/07/28 00:37:58;;;;;;;;;;;27.00;72.80;;;;;;5044404;28;20388;-59
2022/07/28 00:41:09;;;;;;;;;;;27.00;72.50;;;;;;5047060;28;19952;-57
2022/07/28 00:43:13;;;;;;;;;;;26.90;72.40;;;;;;5051703;28;19935;-58
2022/07/28 00:45:41;;;;;;;;;;;26.90;72.50;;;;;;5037854;28;19929;-57
2022/07/28 00:48:08;;;;;;;;;;;26.90;72.40;;;;;;5050342;28;19932;-60
2022/07/28 00:50:37;;;;;;;;;;;26.90;72.70;;;;;;5048991;28;19935;-60
2022/07/28 00:53:04;;;;;;;;;;;26.90;72.80;;;;;;5058310;28;20338;-60
2022/07/28 00:55:33;;;;;;;;;;;26.90;73.70;;;;;;5044080;28;20407;-58
2022/07/28 00:58:20;;;;;;;;;;;26.90;73.40;;;;;;5053372;28;19929;-60
2022/07/28 01:00:47;;;;;;;;;;;26.90;73.40;;;;;;5043434;28;19936;-60
2022/07/28 01:03:15;;;;;;;;;;;26.90;73.40;;;;;;5037305;28;19944;-58
2022/07/28 01:05:44;;;;;;;;;;;26.90;73.40;;;;;;5052752;28;19924;-60
2022/07/28 01:08:22;;;;;;;;;;;26.90;73.40;;;;;;5044827;28;20312;-59
2022/07/28 01:10:55;;;;;;;;;;;26.90;73.30;;;;;;5049001;28;20028;-59
2022/07/28 01:13:25;;;;;;;;;;;26.90;73.40;;;;;;5047914;28;19933;-58
2022/07/28 01:15:59;;;;;;;;;;;26.90;73.20;;;;;;5051836;28;19936;-59
2022/07/28 01:18:30;;;;;;;;;;;26.90;73.30;;;;;;5050908;28;19935;-59
2022/07/28 01:21:11;;;;;;;;;;;26.90;73.90;;;;;;5043865;28;19929;-60
2022/07/28 01:24:16;;;;;;;;;;;26.90;73.30;;;;;;5050161;28;19929;-58
2022/07/28 01:26:58;;;;;;;;;;;26.80;73.40;;;;;;5021876;28;19936;-59
2022/07/28 01:29:37;;;;;;;;;;;26.80;73.30;;;;;;5020355;28;19929;-59
2022/07/28 01:32:07;;;;;;;;;;;26.80;73.50;;;;;;5042479;28;19937;-59
2022/07/28 01:34:44;;;;;;;;;;;26.80;74.00;;;;;;5052787;28;20336;-59
2022/07/28 01:37:15;;;;;;;;;;;26.80;73.80;;;;;;5051244;28;19929;-59
2022/07/28 01:39:43;;;;;;;;;;;26.80;73.80;;;;;;5058463;28;19929;-60
2022/07/28 01:42:12;;;;;;;;;;;26.80;73.70;;;;;;5043938;28;19964;-59
2022/07/28 01:44:43;;;;;;;;;;;26.80;73.50;;;;;;5056439;28;19932;-60
2022/07/28 01:47:11;;;;;;;;;;;26.80;72.90;;;;;;5047508;28;20372;-58
2022/07/28 01:49:39;;;;;;;;;;;26.80;72.70;;;;;;5048935;28;19928;-58
2022/07/28 01:52:07;;;;;;;;;;;26.80;72.80;;;;;;5057757;28;19928;-59
2022/07/28 01:54:40;;;;;;;;;;;26.80;73.50;;;;;;5061301;28;20407;-58
2022/07/28 01:57:09;;;;;;;;;;;26.80;73.30;;;;;;5049991;28;19928;-60
2022/07/28 01:59:37;;;;;;;;;;;26.80;73.20;;;;;;5046914;28;19925;-61
2022/07/28 02:02:04;;;;;;;;;;;26.80;73.10;;;;;;5053412;28;19936;-58
2022/07/28 02:04:32;;;;;;;;;;;26.80;72.90;;;;;;5046311;28;20304;-60
2022/07/28 02:07:00;;;;;;;;;;;26.80;72.90;;;;;;5042300;28;19933;-57
2022/07/28 02:09:28;;;;;;;;;;;26.80;72.70;;;;;;5071183;28;20319;-60
2022/07/28 02:11:55;;;;;;;;;;;26.80;72.60;;;;;;5053658;28;19929;-60
2022/07/28 02:14:23;;;;;;;;;;;26.80;72.40;;;;;;5049707;28;20362;-59
2022/07/28 02:16:53;;;;;;;;;;;26.70;72.40;;;;;;5049708;28;19936;-60
2022/07/28 02:19:21;;;;;;;;;;;26.70;72.40;;;;;;5055157;28;19928;-60
2022/07/28 02:21:48;;;;;;;;;;;26.70;72.30;;;;;;5042606;28;20311;-60
2022/07/28 02:24:18;;;;;;;;;;;26.70;72.30;;;;;;5047167;28;19929;-60
2022/07/28 02:26:48;;;;;;;;;;;26.70;72.40;;;;;;5047688;28;19936;-60
2022/07/28 02:29:17;;;;;;;;;;;26.70;72.40;;;;;;5047376;28;19935;-61
2022/07/28 02:32:13;;;;;;;;;;;26.70;72.30;;;;;;5041017;28;19929;-59
2022/07/28 02:34:57;;;;;;;;;;;26.70;72.50;;;;;;5047640;28;20352;-57
2022/07/28 02:37:24;;;;;;;;;;;26.80;72.40;;;;;;5051583;28;19925;-59
2022/07/28 02:39:54;;;;;;;;;;;26.70;72.40;;;;;;5048950;28;19932;-60
2022/07/28 02:42:29;;;;;;;;;;;26.70;72.20;;;;;;5045517;28;20308;-62
2022/07/28 02:44:57;;;;;;;;;;;26.70;72.20;;;;;;5042579;28;19929;-61
2022/07/28 02:47:26;;;;;;;;;;;26.70;72.20;;;;;;5045050;28;19929;-60
2022/07/28 02:49:56;;;;;;;;;;;26.70;71.90;;;;;;5056071;28;19936;-59
2022/07/28 02:52:24;;;;;;;;;;;26.70;72.10;;;;;;5052089;28;20380;-59
2022/07/28 02:54:52;;;;;;;;;;;26.70;72.30;;;;;;5052213;28;19924;-58
2022/07/28 02:57:20;;;;;;;;;;;26.70;72.20;;;;;;5055553;28;19929;-60
2022/07/28 02:59:48;;;;;;;;;;;26.60;71.90;;;;;;5045080;28;19936;-57
2022/07/28 03:02:18;;;;;;;;;;;26.60;71.80;;;;;;5045649;28;19935;-57
2022/07/28 03:04:57;;;;;;;;;;;26.60;71.80;;;;;;5053951;28;19924;-60
2022/07/28 03:07:25;;;;;;;;;;;26.60;71.80;;;;;;5058027;28;19928;-61
2022/07/28 03:09:53;;;;;;;;;;;26.60;71.70;;;;;;5045620;28;19928;-60
2022/07/28 03:12:20;;;;;;;;;;;26.70;71.90;;;;;;5050465;28;19932;-61
2022/07/28 03:14:48;;;;;;;;;;;26.60;71.70;;;;;;5049713;28;20403;-61
2022/07/28 03:17:15;;;;;;;;;;;26.60;71.50;;;;;;5044926;28;20304;-60
2022/07/28 03:19:42;;;;;;;;;;;26.60;71.60;;;;;;5050106;28;19925;-59
2022/07/28 03:22:10;;;;;;;;;;;26.60;71.60;;;;;;5042657;28;19926;-61
2022/07/28 03:24:45;;;;;;;;;;;26.60;71.60;;;;;;5050468;28;19929;-61
2022/07/28 03:27:24;;;;;;;;;;;26.60;71.50;;;;;;5042440;28;19929;-60
2022/07/28 03:29:54;;;;;;;;;;;26.60;71.70;;;;;;5049373;28;20369;-61
2022/07/28 03:32:29;;;;;;;;;;;26.60;71.50;;;;;;5047583;28;19943;-60
2022/07/28 03:34:56;;;;;;;;;;;26.60;71.50;;;;;;5051661;28;19935;-60
2022/07/28 03:37:29;;;;;;;;;;;26.50;71.60;;;;;;5054918;28;20024;-60
2022/07/28 03:39:58;;;;;;;;;;;26.50;71.80;;;;;;5053987;28;19928;-59
2022/07/28 03:42:25;;;;;;;;;;;26.50;71.80;;;;;;5040345;28;19928;-60
2022/07/28 03:44:53;;;;;;;;;;;26.60;72.10;;;;;;5068607;28;19929;-60
2022/07/28 03:47:21;;;;;;;;;;;26.50;72.00;;;;;;5039711;28;19940;-58
2022/07/28 03:49:49;;;;;;;;;;;26.50;72.20;;;;;;5051915;28;19924;-58
2022/07/28 03:52:16;;;;;;;;;;;26.50;72.20;;;;;;5057052;28;19951;-58
2022/07/28 03:54:44;;;;;;;;;;;26.50;72.50;;;;;;5041466;28;19929;-59
2022/07/28 03:57:11;;;;;;;;;;;26.50;72.40;;;;;;5048891;28;19932;-58
2022/07/28 03:59:39;;;;;;;;;;;26.50;72.50;;;;;;5057846;28;20414;-61
2022/07/28 04:02:06;;;;;;;;;;;26.50;72.50;;;;;;5044494;28;19936;-57
2022/07/28 04:04:33;;;;;;;;;;;26.50;72.50;;;;;;5054803;28;19925;-60
2022/07/28 04:07:01;;;;;;;;;;;26.50;72.50;;;;;;5043585;28;19933;-56
2022/07/28 04:09:28;;;;;;;;;;;26.50;73.00;;;;;;5049025;28;19933;-58
2022/07/28 04:11:55;;;;;;;;;;;26.50;72.80;;;;;;5049493;28;19948;-59
2022/07/28 04:14:22;;;;;;;;;;;26.50;72.60;;;;;;5042494;28;19929;-60
2022/07/28 04:16:50;;;;;;;;;;;26.50;73.20;;;;;;5051898;28;19943;-59
2022/07/28 04:19:17;;;;;;;;;;;26.50;73.10;;;;;;5048264;28;20312;-61
2022/07/28 04:21:45;;;;;;;;;;;26.50;72.80;;;;;;5057603;28;20315;-58
2022/07/28 04:24:12;;;;;;;;;;;26.50;72.50;;;;;;5049115;28;19924;-58
2022/07/28 04:26:40;;;;;;;;;;;26.50;72.60;;;;;;5045850;28;19929;-59
2022/07/28 04:29:10;;;;;;;;;;;26.50;72.10;;;;;;5048772;28;19936;-58
2022/07/28 04:31:37;;;;;;;;;;;26.40;70.70;;;;;;5035334;28;20324;-56
2022/07/28 04:34:04;;;;;;;;;;;26.30;67.00;;;;;;5044024;28;19929;-59
2022/07/28 04:36:31;;;;;;;;;;;26.30;66.70;;;;;;5037739;28;19933;-57
2022/07/28 04:38:59;;;;;;;;;;;26.20;66.40;;;;;;5054935;28;19929;-58
2022/07/28 04:41:26;;;;;;;;;;;26.10;66.10;;;;;;5041116;28;20304;-61
2022/07/28 04:43:53;;;;;;;;;;;26.10;65.60;;;;;;5040963;28;19936;-60
2022/07/28 04:46:20;;;;;;;;;;;26.00;65.10;;;;;;5054666;28;19933;-59
2022/07/28 04:48:48;;;;;;;;;;;26.00;65.10;;;;;;5050985;28;19932;-59
2022/07/28 04:51:15;;;;;;;;;;;26.00;65.20;;;;;;5050750;28;19936;-60
2022/07/28 04:53:42;;;;;;;;;;;25.90;64.70;;;;;;5048801;28;20034;-61
2022/07/28 04:56:09;;;;;;;;;;;25.90;64.40;;;;;;5032685;28;19928;-60
2022/07/28 04:58:36;;;;;;;;;;;25.90;64.60;;;;;;5045428;28;19925;-60
2022/07/28 05:01:04;;;;;;;;;;;25.80;64.30;;;;;;5058337;28;19939;-61
2022/07/28 05:03:31;;;;;;;;;;;25.80;64.10;;;;;;5058265;28;19939;-60
2022/07/28 05:06:02;;;;;;;;;;;25.90;64.40;;;;;;5048413;28;19935;-60
2022/07/28 05:08:29;;;;;;;;;;;25.80;64.30;;;;;;5052986;28;19928;-59
2022/07/28 05:10:56;;;;;;;;;;;25.90;65.10;;;;;;5047873;28;20031;-57
2022/07/28 05:13:23;;;;;;;;;;;25.90;64.60;;;;;;5050197;28;19928;-59
2022/07/28 05:15:59;;;;;;;;;;;25.80;64.50;;;;;;5051717;28;19928;-58
2022/07/28 05:18:26;;;;;;;;;;;25.80;64.60;;;;;;5043300;28;20031;-54
2022/07/28 05:20:53;;;;;;;;;;;25.80;64.20;;;;;;5051534;28;19928;-61
2022/07/28 05:23:20;;;;;;;;;;;25.70;64.00;;;;;;5056120;28;19955;-59
2022/07/28 05:25:47;;;;;;;;;;;25.70;64.10;;;;;;5049669;28;19928;-60
2022/07/28 05:28:15;;;;;;;;;;;25.70;64.10;;;;;;5062905;28;20442;-61
2022/07/28 05:30:43;;;;;;;;;;;25.70;64.30;;;;;;5047523;28;20278;-62
2022/07/28 05:33:10;;;;;;;;;;;25.70;64.30;;;;;;5044204;28;20400;-58
2022/07/28 05:35:37;;;;;;;;;;;25.70;64.40;;;;;;5056109;28;19936;-55
2022/07/28 05:38:04;;;;;;;;;;;25.70;65.30;;;;;;5051219;28;19955;-59
2022/07/28 05:40:37;;;;;;;;;;;25.80;65.60;;;;;;5051685;28;19932;-58
2022/07/28 05:43:04;;;;;;;;;;;25.80;65.70;;;;;;5054040;28;20631;-60
2022/07/28 05:45:34;;;;;;;;;;;25.90;65.80;;;;;;5046053;28;19948;-60
2022/07/28 05:48:02;;;;;;;;;;;25.90;66.20;;;;;;5045269;28;20380;-58
2022/07/28 05:50:29;;;;;;;;;;;26.00;66.50;;;;;;5056414;28;19936;-54
2022/07/28 05:52:56;;;;;;;;;;;26.00;66.90;;;;;;5042421;28;19929;-57
2022/07/28 05:55:25;;;;;;;;;;;26.00;67.20;;;;;;5049142;28;20396;-52
2022/07/28 05:57:53;;;;;;;;;;;26.10;67.40;;;;;;5048621;28;19936;-54
2022/07/28 06:00:21;;;;;;;;;;;26.00;67.70;;;;;;5049932;28;20359;-58
2022/07/28 06:02:48;;;;;;;;;;;26.00;67.70;;;;;;5052851;28;20444;-56
2022/07/28 06:05:17;;;;;;;;;;;26.00;67.70;;;;;;5050506;28;19928;-56
2022/07/28 06:07:45;;;;;;;;;;;26.00;67.70;;;;;;5038073;28;19937;-58
2022/07/28 06:10:13;;;;;;;;;;;26.00;67.70;;;;;;5043678;28;20380;-53
2022/07/28 06:12:45;;;;;;;;;;;26.00;67.90;;;;;;5056660;28;20407;-53
2022/07/28 06:15:13;;;;;;;;;;;26.00;67.90;;;;;;5045131;28;19947;-55
2022/07/28 06:17:40;;;;;;;;;;;26.00;67.80;;;;;;5046394;28;20388;-53
2022/07/28 06:20:08;;;;;;;;;;;26.00;68.00;;;;;;5047940;28;19929;-53
2022/07/28 06:22:42;;;;;;;;;;;26.00;68.10;;;;;;5045179;28;19939;-56
2022/07/28 06:25:14;;;;;;;;;;;26.00;68.00;;;;;;5048444;28;19940;-53
2022/07/28 06:27:41;;;;;;;;;;;26.10;68.20;;;;;;5048468;28;19939;-58
2022/07/28 06:30:08;;;;;;;;;;;26.10;68.30;;;;;;5046066;28;19936;-55
2022/07/28 06:32:36;;;;;;;;;;;26.10;68.30;;;;;;5053347;28;19932;-56
2022/07/28 06:35:03;;;;;;;;;;;26.10;68.40;;;;;;5060882;28;19929;-58
2022/07/28 06:37:31;;;;;;;;;;;26.20;68.50;;;;;;5047982;28;19952;-57
2022/07/28 06:39:58;;;;;;;;;;;26.20;68.40;;;;;;5042045;28;19928;-54
2022/07/28 06:42:25;;;;;;;;;;;26.30;68.60;;;;;;5052001;28;20388;-53
2022/07/28 06:44:52;;;;;;;;;;;26.30;68.60;;;;;;5053772;28;20287;-55
2022/07/28 06:47:27;;;;;;;;;;;26.20;68.70;;;;;;5050143;28;19928;-56
2022/07/28 06:49:54;;;;;;;;;;;26.20;68.90;;;;;;5047290;28;19940;-56
2022/07/28 06:52:21;;;;;;;;;;;26.20;69.00;;;;;;5052121;28;19932;-53
2022/07/28 06:54:51;;;;;;;;;;;26.10;69.00;;;;;;5044534;28;19932;-57
2022/07/28 06:57:24;;;;;;;;;;;26.10;69.20;;;;;;5049074;28;19925;-56
2022/07/28 07:00:01;;;;;;;;;;;26.20;69.30;;;;;;5044761;28;19975;-55
2022/07/28 07:02:29;;;;;;;;;;;26.20;69.40;;;;;;5042756;28;19929;-53
2022/07/28 07:04:56;;;;;;;;;;;26.20;69.50;;;;;;5045751;28;19928;-51
2022/07/28 07:07:24;;;;;;;;;;;26.20;69.50;;;;;;5054009;28;20285;-54
2022/07/28 07:09:51;;;;;;;;;;;26.20;69.60;;;;;;5038056;28;19948;-59
2022/07/28 07:12:18;;;;;;;;;;;26.20;69.70;;;;;;5050848;28;19928;-55
2022/07/28 07:14:45;;;;;;;;;;;26.20;69.70;;;;;;5041463;28;20308;-52
2022/07/28 07:17:12;;;;;;;;;;;26.20;69.80;;;;;;5051713;28;19936;-53
2022/07/28 07:19:39;;;;;;;;;;;26.20;70.00;;;;;;5053043;28;19928;-53
2022/07/28 07:22:07;;;;;;;;;;;26.20;70.00;;;;;;5047634;28;19928;-56
2022/07/28 07:24:34;;;;;;;;;;;26.20;70.00;;;;;;5045116;28;20323;-56
2022/07/28 07:27:01;;;;;;;;;;;26.30;70.10;;;;;;5052403;28;19940;-55
2022/07/28 07:29:28;;;;;;;;;;;26.20;70.00;;;;;;5053369;28;19963;-54
2022/07/28 07:31:57;;;;;;;;;;;26.30;70.30;;;;;;5043827;28;19951;-53
2022/07/28 07:34:25;;;;;;;;;;;26.30;70.30;;;;;;5053151;28;19925;-58
2022/07/28 07:36:52;;;;;;;;;;;26.30;70.30;;;;;;5050614;28;19939;-51
2022/07/28 07:39:19;;;;;;;;;;;26.30;70.30;;;;;;5040603;28;19948;-55
2022/07/28 07:41:46;;;;;;;;;;;26.30;70.30;;;;;;5043871;28;19929;-52
2022/07/28 07:44:13;;;;;;;;;;;26.30;70.30;;;;;;5046048;28;19952;-52
2022/07/28 07:46:41;;;;;;;;;;;26.30;70.40;;;;;;5046307;28;19929;-57
2022/07/28 07:49:08;;;;;;;;;;;26.30;70.40;;;;;;5057275;28;20443;-56
2022/07/28 07:51:36;;;;;;;;;;;26.40;70.50;;;;;;5047190;28;19936;-57
2022/07/28 07:54:03;;;;;;;;;;;26.40;70.50;;;;;;5048380;28;19928;-58
2022/07/28 07:56:30;;;;;;;;;;;26.40;70.60;;;;;;5042129;28;20284;-56
2022/07/28 07:58:57;;;;;;;;;;;26.40;70.70;;;;;;5056793;28;19924;-55
2022/07/28 08:01:25;;;;;;;;;;;26.40;70.70;;;;;;5052112;28;19929;-55
2022/07/28 08:03:52;;;;;;;;;;;26.40;70.80;;;;;;5039490;28;19955;-55
2022/07/28 08:06:19;;;;;;;;;;;26.40;70.90;;;;;;5042344;28;20415;-54
2022/07/28 08:08:53;;;;;;;;;;;26.40;70.90;;;;;;5051325;28;19948;-55
2022/07/28 08:11:20;;;;;;;;;;;26.40;71.00;;;;;;5052926;28;19962;-54
2022/07/28 08:13:47;;;;;;;;;;;26.40;71.10;;;;;;5044655;28;20750;-49
2022/07/28 08:16:15;;;;;;;;;;;26.40;71.10;;;;;;5039078;28;19936;-58
2022/07/28 08:18:43;;;;;;;;;;;26.40;71.20;;;;;;5057894;28;19940;-54
2022/07/28 08:21:11;;;;;;;;;;;26.40;71.20;;;;;;5047023;28;19928;-56
2022/07/28 08:23:39;;;;;;;;;;;26.40;71.40;;;;;;5046847;28;19935;-56
2022/07/28 08:26:06;;;;;;;;;;;26.40;71.40;;;;;;5052208;28;19943;-54
2022/07/28 08:28:34;;;;;;;;;;;26.40;71.40;;;;;;5057126;28;19936;-54
2022/07/28 08:31:01;;;;;;;;;;;26.40;71.50;;;;;;5043463;28;19955;-55
2022/07/28 08:33:29;;;;;;;;;;;26.40;71.60;;;;;;5044891;28;19928;-56
2022/07/28 08:35:56;;;;;;;;;;;26.40;71.60;;;;;;5054776;28;20406;-55
2022/07/28 08:38:23;;;;;;;;;;;26.40;71.60;;;;;;5049407;28;19956;-57
2022/07/28 08:40:52;;;;;;;;;;;26.40;71.70;;;;;;5056944;28;19929;-55
2022/07/28 08:43:38;;;;;;;;;;;26.40;71.70;;;;;;5056260;28;19940;-54
2022/07/28 08:46:06;;;;;;;;;;;26.50;71.80;;;;;;5054236;28;20006;-56
2022/07/28 08:48:34;;;;;;;;;;;26.50;71.80;;;;;;5047607;28;19929;-56
2022/07/28 08:51:05;;;;;;;;;;;26.40;71.90;;;;;;5054525;28;19944;-57
2022/07/28 08:53:37;;;;;;;;;;;26.50;72.00;;;;;;5050571;28;20028;-55
2022/07/28 08:56:05;;;;;;;;;;;26.50;72.00;;;;;;5045205;28;19992;-50
2022/07/28 08:58:33;;;;;;;;;;;26.40;72.00;;;;;;5058558;28;19940;-61
2022/07/28 09:01:00;;;;;;;;;;;26.40;72.10;;;;;;5048859;28;19929;-54
2022/07/28 09:03:28;;;;;;;;;;;26.50;72.20;;;;;;5048800;28;20339;-55
2022/07/28 09:05:56;;;;;;;;;;;26.40;72.10;;;;;;5048351;28;19929;-53
2022/07/28 09:08:23;;;;;;;;;;;26.40;72.10;;;;;;5062069;28;19947;-58
2022/07/28 09:10:51;;;;;;;;;;;26.50;72.20;;;;;;5045079;28;19939;-55
2022/07/28 09:13:18;;;;;;;;;;;26.40;72.20;;;;;;5059475;28;20319;-53
2022/07/28 09:15:46;;;;;;;;;;;26.50;72.20;;;;;;5039724;28;19936;-54
2022/07/28 09:18:13;;;;;;;;;;;26.50;72.20;;;;;;5034420;28;19956;-53
2022/07/28 09:20:42;;;;;;;;;;;26.50;72.20;;;;;;5040116;28;19936;-53
2022/07/28 09:23:11;;;;;;;;;;;26.50;72.60;;;;;;5048151;28;19929;-57
2022/07/28 09:26:06;;;;;;;;;;;26.50;72.30;;;;;;5056060;28;19935;-50
2022/07/28 09:28:47;;;;;;;;;;;26.50;72.30;;;;;;5051753;28;20447;-54
2022/07/28 09:31:14;;;;;;;;;;;26.50;72.30;;;;;;5046353;28;19932;-56
2022/07/28 09:33:51;;;;;;;;;;;26.50;72.30;;;;;;5052956;28;20335;-53
2022/07/28 09:36:18;;;;;;;;;;;26.50;72.30;;;;;;5056459;28;20311;-55
2022/07/28 09:38:45;;;;;;;;;;;26.50;72.40;;;;;;5048609;28;19928;-55
2022/07/28 09:41:17;;;;;;;;;;;26.50;72.40;;;;;;5042315;28;20408;-56
2022/07/28 09:43:44;;;;;;;;;;;26.50;72.50;;;;;;5057355;28;20372;-57
2022/07/28 09:46:21;;;;;;;;;;;26.50;72.50;;;;;;5043117;28;19937;-57
2022/07/28 09:48:49;;;;;;;;;;;26.50;72.50;;;;;;5043819;28;20356;-55
2022/07/28 09:51:18;;;;;;;;;;;26.50;72.50;;;;;;5041020;28;20491;-56
2022/07/28 09:53:45;;;;;;;;;;;26.50;72.60;;;;;;5062984;28;19924;-54
2022/07/28 09:56:13;;;;;;;;;;;26.60;72.60;;;;;;5055875;28;20018;-58
2022/07/28 09:58:40;;;;;;;;;;;26.60;72.60;;;;;;5057039;28;19928;-53
2022/07/28 10:01:11;;;;;;;;;;;26.60;72.60;;;;;;5054250;28;19928;-56
2022/07/28 10:03:40;;;;;;;;;;;26.60;72.60;;;;;;5056809;28;19931;-54
2022/07/28 10:06:12;;;;;;;;;;;26.60;72.60;;;;;;5052030;28;19929;-57
2022/07/28 10:08:49;;;;;;;;;;;26.60;72.60;;;;;;5051413;28;20307;-58
2022/07/28 10:11:17;;;;;;;;;;;26.60;72.60;;;;;;5057210;28;19929;-54
2022/07/28 10:13:51;;;;;;;;;;;26.60;72.70;;;;;;5050553;28;19928;-56
2022/07/28 10:16:19;;;;;;;;;;;26.60;72.60;;;;;;5055404;28;19929;-53
2022/07/28 10:18:47;;;;;;;;;;;26.60;72.70;;;;;;5049857;28;19980;-51
2022/07/28 10:21:16;;;;;;;;;;;26.60;72.70;;;;;;5054416;28;20313;-55
2022/07/28 10:23:48;;;;;;;;;;;26.60;72.70;;;;;;5047723;28;19948;-55
2022/07/28 10:26:16;;;;;;;;;;;26.60;72.70;;;;;;5039899;28;19929;-52
2022/07/28 10:28:46;;;;;;;;;;;26.60;72.70;;;;;;5054729;28;19932;-56
2022/07/28 10:31:14;;;;;;;;;;;26.60;72.70;;;;;;5045289;28;19932;-58
2022/07/28 10:33:47;;;;;;;;;;;26.60;72.70;;;;;;5051414;28;19929;-56
2022/07/28 10:36:15;;;;;;;;;;;26.60;72.70;;;;;;5035879;28;20262;-50
2022/07/28 10:38:42;;;;;;;;;;;26.60;73.30;;;;;;5057069;28;20195;-56
2022/07/28 10:41:10;;;;;;;;;;;26.60;72.80;;;;;;5041572;28;19933;-53
2022/07/28 10:43:37;;;;;;;;;;;26.60;73.40;;;;;;5052426;28;19935;-51
2022/07/28 10:46:09;;;;;;;;;;;26.60;72.80;;;;;;5058180;28;19929;-56
2022/07/28 10:48:43;;;;;;;;;;;26.60;72.90;;;;;;5053163;28;19925;-53
2022/07/28 10:51:10;;;;;;;;;;;26.60;72.90;;;;;;5043955;28;19936;-53
2022/07/28 10:53:51;;;;;;;;;;;26.60;72.90;;;;;;5049846;28;19928;-53
2022/07/28 10:56:32;;;;;;;;;;;26.60;72.90;;;;;;5050963;28;19954;-53
2022/07/28 10:59:16;;;;;;;;;;;26.60;72.90;;;;;;5051632;28;19929;-55
2022/07/28 11:01:44;;;;;;;;;;;26.70;72.90;;;;;;5042693;28;19933;-54
2022/07/28 11:04:34;;;;;;;;;;;26.60;72.90;;;;;;5055290;28;19935;-55
2022/07/28 11:07:21;;;;;;;;;;;26.60;72.90;;;;;;5047075;28;20403;-54
2022/07/28 11:09:48;;;;;;;;;;;26.60;73.00;;;;;;5041688;28;19940;-56
2022/07/28 11:12:36;;;;;;;;;;;26.60;73.00;;;;;;5051571;28;19924;-57
2022/07/28 11:15:23;;;;;;;;;;;26.60;73.00;;;;;;5040504;28;19936;-57
2022/07/28 11:17:57;;;;;;;;;;;26.60;73.00;;;;;;5034138;28;20311;-52
2022/07/28 11:20:44;;;;;;;;;;;26.70;73.10;;;;;;5045869;28;19929;-51
2022/07/28 11:23:29;;;;;;;;;;;26.70;73.10;;;;;;5056520;28;19928;-56
2022/07/28 11:26:15;;;;;;;;;;;26.70;73.10;;;;;;5046508;28;20289;-49
2022/07/28 11:29:07;;;;;;;;;;;26.60;73.10;;;;;;5047314;28;20005;-54
2022/07/28 11:31:43;;;;;;;;;;;26.60;73.20;;;;;;5043966;28;19943;-55
2022/07/28 11:34:10;;;;;;;;;;;26.60;73.20;;;;;;5054227;28;19928;-55
2022/07/28 11:36:56;;;;;;;;;;;26.60;73.20;;;;;;5051869;28;19929;-57
2022/07/28 11:39:27;;;;;;;;;;;26.60;73.20;;;;;;5049382;28;19929;-55
2022/07/28 11:41:54;;;;;;;;;;;26.60;73.20;;;;;;5043735;28;19955;-54
2022/07/28 11:44:25;;;;;;;;;;;26.60;73.20;;;;;;5049325;28;19931;-58
2022/07/28 11:46:53;;;;;;;;;;;26.60;73.20;;;;;;5050751;28;20296;-54
2022/07/28 11:49:21;;;;;;;;;;;26.60;73.20;;;;;;5038914;28;19936;-55
2022/07/28 11:52:07;;;;;;;;;;;26.60;73.30;;;;;;5053080;28;19928;-54
2022/07/28 11:54:35;;;;;;;;;;;26.60;73.30;;;;;;5036923;28;19941;-54
2022/07/28 11:57:03;;;;;;;;;;;26.60;73.30;;;;;;5052098;28;20209;-54
2022/07/28 11:59:44;;;;;;;;;;;26.60;73.30;;;;;;5057686;28;20408;-54
2022/07/28 12:02:17;;;;;;;;;;;26.60;73.30;;;;;;5047261;28;19935;-54
2022/07/28 12:04:44;;;;;;;;;;;26.60;73.30;;;;;;5046617;28;20305;-54
2022/07/28 12:07:11;;;;;;;;;;;26.60;73.30;;;;;;5051621;28;20038;-55
2022/07/28 12:09:39;;;;;;;;;;;26.70;73.30;;;;;;5036112;28;20416;-52
2022/07/28 12:12:09;;;;;;;;;;;26.70;73.30;;;;;;5049668;28;19929;-53
2022/07/28 12:14:37;;;;;;;;;;;26.70;73.30;;;;;;5036939;28;19932;-54
2022/07/28 12:17:05;;;;;;;;;;;26.80;73.30;;;;;;5053638;28;20035;-54
2022/07/28 12:19:32;;;;;;;;;;;26.80;73.30;;;;;;5044183;28;19936;-53
2022/07/28 12:21:59;;;;;;;;;;;26.80;73.30;;;;;;5046026;28;19936;-51
2022/07/28 12:24:28;;;;;;;;;;;26.80;73.30;;;;;;5054874;28;19936;-50
2022/07/28 12:26:56;;;;;;;;;;;26.80;73.20;;;;;;5047680;28;19928;-51
2022/07/28 12:29:28;;;;;;;;;;;26.80;73.20;;;;;;5050090;28;19940;-51
2022/07/28 12:32:03;;;;;;;;;;;26.80;73.30;;;;;;5054761;28;20324;-51
2022/07/28 12:34:33;;;;;;;;;;;26.80;73.20;;;;;;5046362;28;20292;-55
2022/07/28 12:37:02;;;;;;;;;;;26.80;73.20;;;;;;5051635;28;20351;-54
2022/07/28 12:39:31;;;;;;;;;;;26.80;73.20;;;;;;5051707;28;19932;-58
2022/07/28 12:42:18;;;;;;;;;;;26.90;73.30;;;;;;5038141;28;19944;-56
2022/07/28 12:44:47;;;;;;;;;;;26.90;73.30;;;;;;5036247;28;19929;-55
2022/07/28 12:47:16;;;;;;;;;;;26.90;73.30;;;;;;5039991;28;19936;-57
2022/07/28 12:49:43;;;;;;;;;;;26.80;73.20;;;;;;5056290;28;20408;-56
2022/07/28 12:52:18;;;;;;;;;;;26.90;73.20;;;;;;5042880;28;20451;-51
2022/07/28 12:54:49;;;;;;;;;;;26.90;73.20;;;;;;5038544;28;19929;-54
2022/07/28 12:57:38;;;;;;;;;;;26.90;73.20;;;;;;5043556;28;19940;-59
2022/07/28 13:00:15;;;;;;;;;;;26.90;73.20;;;;;;5052375;28;19952;-57
2022/07/28 13:02:42;;;;;;;;;;;26.90;73.20;;;;;;5053725;28;19939;-51
2022/07/28 13:05:25;;;;;;;;;;;26.90;73.20;;;;;;5050371;28;19936;-55
2022/07/28 13:08:02;;;;;;;;;;;26.90;73.30;;;;;;5043423;28;19928;-56
2022/07/28 13:10:31;;;;;;;;;;;26.90;73.20;;;;;;5043337;28;19928;-53
2022/07/28 13:13:05;;;;;;;;;;;26.90;73.30;;;;;;5051855;28;20331;-53
2022/07/28 13:15:32;;;;;;;;;;;26.90;73.30;;;;;;5040555;28;20409;-57
2022/07/28 13:17:59;;;;;;;;;;;27.00;73.30;;;;;;5043557;28;19929;-57
2022/07/28 13:20:27;;;;;;;;;;;27.00;73.40;;;;;;5055655;28;19935;-57
2022/07/28 13:22:56;;;;;;;;;;;27.00;73.30;;;;;;5045505;28;20415;-56
2022/07/28 13:25:23;;;;;;;;;;;27.00;73.30;;;;;;5048552;28;19928;-55
2022/07/28 13:27:50;;;;;;;;;;;27.00;73.30;;;;;;5045269;28;19940;-56
2022/07/28 13:30:22;;;;;;;;;;;27.00;73.30;;;;;;5044659;28;19925;-56
2022/07/28 13:32:49;;;;;;;;;;;27.00;73.30;;;;;;5047362;28;20422;-56
2022/07/28 13:35:16;;;;;;;;;;;27.00;73.30;;;;;;5053178;28;19932;-55
2022/07/28 13:37:45;;;;;;;;;;;27.00;73.30;;;;;;5057132;28;20149;-57
2022/07/28 13:40:12;;;;;;;;;;;27.00;73.30;;;;;;5051250;28;20320;-54
2022/07/28 13:42:39;;;;;;;;;;;27.00;73.40;;;;;;5045638;28;19940;-56
2022/07/28 13:45:19;;;;;;;;;;;27.00;73.40;;;;;;5045652;28;20416;-56
2022/07/28 13:47:49;;;;;;;;;;;27.00;73.40;;;;;;5057497;28;19928;-55
2022/07/28 13:50:19;;;;;;;;;;;27.00;73.40;;;;;;5055377;28;20312;-54
2022/07/28 13:52:47;;;;;;;;;;;27.00;73.70;;;;;;5054069;28;19928;-56
2022/07/28 13:55:14;;;;;;;;;;;27.00;73.40;;;;;;5052483;28;20028;-54
2022/07/28 13:57:46;;;;;;;;;;;27.00;73.40;;;;;;5044742;28;19978;-53
2022/07/28 14:00:16;;;;;;;;;;;27.00;73.50;;;;;;5051100;28;19956;-57
2022/07/28 14:02:47;;;;;;;;;;;27.00;73.50;;;;;;5047155;28;20259;-56
2022/07/28 14:05:15;;;;;;;;;;;27.00;73.50;;;;;;5041518;28;19959;-57
2022/07/28 14:07:42;;;;;;;;;;;27.00;73.60;;;;;;5055538;28;19929;-51
2022/07/28 14:10:16;;;;;;;;;;;27.00;73.50;;;;;;5054963;28;19964;-57
2022/07/28 14:12:43;;;;;;;;;;;27.00;73.50;;;;;;5057836;28;19943;-56
2022/07/28 14:15:13;;;;;;;;;;;27.00;73.50;;;;;;5050214;28;19929;-56
2022/07/28 14:17:40;;;;;;;;;;;27.00;73.50;;;;;;5049881;28;19940;-54
2022/07/28 14:20:11;;;;;;;;;;;27.00;73.60;;;;;;5053042;28;19929;-53
2022/07/28 14:22:40;;;;;;;;;;;27.00;73.60;;;;;;5057998;28;19947;-55
2022/07/28 14:25:07;;;;;;;;;;;27.00;73.60;;;;;;5050790;28;19948;-54
2022/07/28 14:27:35;;;;;;;;;;;27.00;73.70;;;;;;5063257;28;19936;-56
2022/07/28 14:30:03;;;;;;;;;;;27.00;73.70;;;;;;5051916;28;20419;-56
2022/07/28 14:32:31;;;;;;;;;;;27.00;73.70;;;;;;5063939;28;19951;-55